Pekin, Iowa
Current Conditions -  °F | °C
As of 10:15 PM on Thursday 18 Dec 2014 (Local Time) from KFFL Reporting Station
Overcast Overcast  
Wind Chill: 27°   Ceiling: 2900
Heat Index: 27°   Visibility: 8mi
Dew Point: 23°   Wind: 0mph
Humidity: 86%   Direction: NA
Pressure: 30.29"   Gusts: NA
Location:  41.1197°N, 92.063°W
Report Text: KFFL 190415Z AUTO 00000KT 8SM BKN029 OVC048 M03/M05 A3029 RMK AO2
Loading
Personal Weather Stations






























Interactive Weather Map New forecast layout! Learn more

10-Day Weather Forecast

Advertisements
Track Severe Weather on mobile